Time;durP1;ratioP1;P1;durP2;ratioP2;P2;SDS_P1;SDS_P2;PMS_P1;PMS_P2;Temp;Humidity;BMP_temperature;BMP_pressure;BME280_temperature;BME280_humidity;BME280_pressure;Samples;Min_cycle;Max_cycle;Signal;HPM_P1;HPM_P2
2023/12/20 00:00:39;;;;;;;2.40;1.80;;;5.90;99.90;5.70;100056.00;;;;4915899;28;86794;-69
2023/12/20 00:03:05;;;;;;;3.13;2.20;;;5.80;99.90;5.70;100040.00;;;;4909820;28;94345;-69
2023/12/20 00:05:35;;;;;;;2.63;2.23;;;5.90;99.90;5.70;100049.00;;;;4912825;28;88512;-67
2023/12/20 00:08:00;;;;;;;2.97;2.20;;;5.90;99.90;5.70;100040.00;;;;4907662;28;88546;-68
2023/12/20 00:10:26;;;;;;;2.73;2.10;;;6.20;99.90;5.70;100048.00;;;;4912828;28;88067;-67
2023/12/20 00:12:52;;;;;;;2.70;2.00;;;5.90;99.90;5.70;100045.00;;;;4909938;28;108739;-67
2023/12/20 00:15:17;;;;;;;1.77;1.40;;;5.80;99.90;5.70;100051.00;;;;4908798;28;118198;-68
2023/12/20 00:17:43;;;;;;;2.23;1.80;;;5.80;99.90;5.70;100039.00;;;;4913257;28;89708;-68
2023/12/20 00:20:09;;;;;;;2.03;1.47;;;6.50;99.90;5.70;100048.00;;;;4907291;28;110048;-67
2023/12/20 00:22:35;;;;;;;2.00;1.73;;;5.80;99.90;5.60;100036.00;;;;4906180;28;95162;-68
2023/12/20 00:25:00;;;;;;;2.30;1.83;;;6.30;99.90;5.60;100042.00;;;;4907414;28;116114;-68
2023/12/20 00:27:26;;;;;;;2.00;1.80;;;6.30;99.90;5.60;100035.00;;;;4912260;28;115028;-67
2023/12/20 00:29:52;;;;;;;2.93;2.03;;;5.80;99.90;5.60;100038.00;;;;4907702;28;111595;-68
2023/12/20 00:32:17;;;;;;;2.17;1.70;;;5.80;99.90;5.60;100042.00;;;;4908707;28;109162;-67
2023/12/20 00:34:43;;;;;;;2.17;1.47;;;5.80;99.90;5.60;100037.00;;;;4910204;28;89741;-67
2023/12/20 00:37:09;;;;;;;3.17;1.57;;;6.10;99.90;5.60;100037.00;;;;4908888;28;88886;-69
2023/12/20 00:39:35;;;;;;;2.10;1.50;;;5.80;99.90;5.60;100041.00;;;;4915752;28;109457;-68
2023/12/20 00:42:00;;;;;;;2.30;1.70;;;6.30;99.90;5.60;100044.00;;;;4911778;28;108216;-70
2023/12/20 00:44:26;;;;;;;2.67;1.67;;;5.80;99.90;5.60;100034.00;;;;4912550;28;117919;-69
2023/12/20 00:46:52;;;;;;;2.50;1.90;;;5.80;99.90;5.60;100028.00;;;;4912573;28;119505;-67
2023/12/20 00:49:17;;;;;;;2.23;1.40;;;6.30;99.90;5.60;100023.00;;;;4913404;28;110819;-68
2023/12/20 00:51:43;;;;;;;2.97;1.60;;;5.70;99.90;5.60;100026.00;;;;4913891;28;88083;-68
2023/12/20 00:54:09;;;;;;;4.10;2.43;;;6.30;99.90;5.60;100028.00;;;;4910446;28;117046;-68
2023/12/20 00:56:35;;;;;;;2.17;1.50;;;6.50;99.90;5.60;100017.00;;;;4910163;28;88500;-68
2023/12/20 00:59:01;;;;;;;3.27;2.07;;;5.70;99.90;5.60;100021.00;;;;4913783;28;88001;-68
2023/12/20 01:01:26;;;;;;;2.67;1.90;;;6.30;99.90;5.60;100028.00;;;;4909629;28;88395;-68
2023/12/20 01:03:52;;;;;;;2.47;2.17;;;5.70;99.90;5.60;100018.00;;;;4913055;28;115359;-68
2023/12/20 01:06:18;;;;;;;2.13;1.13;;;5.80;99.90;5.60;100013.00;;;;4909607;28;87772;-68
2023/12/20 01:08:44;;;;;;;2.27;1.30;;;5.80;99.90;5.60;100010.00;;;;4913828;28;87821;-67
2023/12/20 01:11:10;;;;;;;2.57;1.53;;;5.70;99.90;5.60;100007.00;;;;4910961;28;94231;-69
2023/12/20 01:13:36;;;;;;;1.87;1.50;;;6.20;99.90;5.60;100012.00;;;;4912179;28;116163;-68
2023/12/20 01:16:02;;;;;;;4.83;2.40;;;5.80;99.90;5.60;99997.00;;;;4909679;28;87995;-68
2023/12/20 01:18:28;;;;;;;3.17;2.33;;;5.80;99.90;5.60;100006.00;;;;4909724;28;87504;-67
2023/12/20 01:20:53;;;;;;;1.47;1.30;;;5.80;99.90;5.60;99999.00;;;;4910618;28;110235;-67
2023/12/20 01:23:19;;;;;;;2.43;1.87;;;6.50;99.90;5.60;99998.00;;;;4909169;28;88081;-67
2023/12/20 01:25:45;;;;;;;1.67;1.57;;;5.80;99.90;5.60;100010.00;;;;4906913;28;114180;-68
2023/12/20 01:28:10;;;;;;;2.67;1.90;;;5.80;99.90;5.60;99999.00;;;;4910968;28;108257;-67
2023/12/20 01:30:36;;;;;;;2.07;1.60;;;5.70;99.90;5.60;99994.00;;;;4911786;28;107709;-68
2023/12/20 01:33:02;;;;;;;3.27;1.47;;;5.70;99.90;5.60;99992.00;;;;4896836;28;90399;-70
2023/12/20 01:35:27;;;;;;;2.60;1.73;;;5.80;99.90;5.60;99998.00;;;;4911273;28;106526;-68
2023/12/20 01:37:56;;;;;;;2.27;1.80;;;5.70;99.90;5.60;100002.00;;;;4909701;28;110269;-68
2023/12/20 01:40:22;;;;;;;1.90;1.70;;;5.80;99.90;5.60;99991.00;;;;4907903;28;87991;-68
2023/12/20 01:43:02;;;;;;;6.80;2.07;;;5.80;99.90;5.60;99997.00;;;;4911079;28;106853;-69
2023/12/20 01:45:27;;;;;;;3.20;2.20;;;5.80;99.90;5.60;99989.00;;;;4912410;28;89832;-69
2023/12/20 01:47:57;;;;;;;2.93;1.83;;;5.70;99.90;5.60;99986.00;;;;4927249;28;89237;-69
2023/12/20 01:50:23;;;;;;;2.83;1.67;;;5.70;99.90;5.60;99992.00;;;;4926696;28;88074;-69
2023/12/20 01:52:51;;;;;;;5.57;3.00;;;5.80;99.90;5.60;99989.00;;;;4911471;28;88887;-69
2023/12/20 01:55:19;;;;;;;3.20;2.20;;;6.50;99.90;5.60;99995.00;;;;4913866;28;88294;-69
2023/12/20 01:57:47;;;;;;;2.90;2.33;;;6.00;99.90;5.60;99976.00;;;;4914342;28;87787;-69
2023/12/20 02:00:14;;;;;;;3.23;2.67;;;6.20;99.90;5.50;99974.00;;;;4911278;28;87907;-69
2023/12/20 02:02:40;;;;;;;3.57;2.40;;;5.70;99.90;5.50;99966.00;;;;4922437;28;87671;-70
2023/12/20 02:05:07;;;;;;;4.77;2.90;;;5.90;99.90;5.50;99970.00;;;;4910558;28;87641;-69
2023/12/20 02:07:34;;;;;;;4.07;2.97;;;5.70;99.90;5.50;99968.00;;;;4906512;28;99827;-68
2023/12/20 02:10:01;;;;;;;3.60;2.40;;;5.70;99.90;5.50;99957.00;;;;4907770;28;88974;-68
2023/12/20 02:12:27;;;;;;;3.37;2.07;;;5.70;99.90;5.50;99961.00;;;;4913903;28;88817;-67
2023/12/20 02:14:53;;;;;;;2.80;2.17;;;5.70;99.90;5.50;99955.00;;;;4906868;28;117607;-69
2023/12/20 02:17:20;;;;;;;5.80;3.03;;;5.70;99.90;5.50;99959.00;;;;4916490;28;88005;-68
2023/12/20 02:19:46;;;;;;;3.00;2.37;;;5.70;99.90;5.50;99960.00;;;;4909781;28;88088;-68
2023/12/20 02:22:12;;;;;;;2.83;2.13;;;5.70;99.90;5.50;99952.00;;;;4909343;28;87668;-68
2023/12/20 02:24:38;;;;;;;2.67;2.10;;;5.70;99.90;5.50;99953.00;;;;4910579;28;88440;-69
2023/12/20 02:27:07;;;;;;;3.47;2.50;;;5.60;99.90;5.50;99953.00;;;;4906304;28;109746;-67
2023/12/20 02:29:36;;;;;;;2.33;2.13;;;5.60;99.90;5.40;99962.00;;;;4908837;28;94889;-69
2023/12/20 02:32:02;;;;;;;3.13;2.70;;;5.60;99.90;5.50;99962.00;;;;4910246;28;88578;-69
2023/12/20 02:34:29;;;;;;;3.07;2.43;;;5.60;99.90;5.50;99963.00;;;;4905250;28;89638;-69
2023/12/20 02:36:54;;;;;;;4.00;2.47;;;5.70;99.90;5.40;99968.00;;;;4914146;28;87742;-70
2023/12/20 02:39:22;;;;;;;3.70;2.97;;;5.60;99.90;5.40;99962.00;;;;4908839;28;87714;-71
2023/12/20 02:41:48;;;;;;;2.33;2.10;;;5.60;99.90;5.40;99965.00;;;;4912349;28;89773;-68
2023/12/20 02:44:14;;;;;;;2.07;1.60;;;5.60;99.90;5.40;99959.00;;;;4910761;28;87733;-69
2023/12/20 02:46:40;;;;;;;3.77;2.73;;;5.60;99.90;5.40;99965.00;;;;4898446;28;87756;-71
2023/12/20 02:49:06;;;;;;;3.23;2.13;;;6.00;99.90;5.40;99958.00;;;;4903635;28;106699;-71
2023/12/20 02:51:32;;;;;;;2.83;2.30;;;5.80;99.90;5.40;99953.00;;;;4909732;28;87372;-70
2023/12/20 02:53:57;;;;;;;2.27;2.07;;;5.50;99.90;5.40;99942.00;;;;4911004;28;88050;-68
2023/12/20 02:56:23;;;;;;;5.27;3.00;;;5.50;99.90;5.40;99958.00;;;;4905926;28;87473;-69
2023/12/20 02:58:49;;;;;;;1.97;1.40;;;5.60;99.90;5.40;99956.00;;;;4905336;28;109634;-68
2023/12/20 03:01:15;;;;;;;3.60;2.23;;;5.60;99.90;5.40;99944.00;;;;4898874;28;87865;-70
2023/12/20 03:03:40;;;;;;;2.63;2.20;;;5.60;99.90;5.40;99942.00;;;;4909113;28;88788;-71
2023/12/20 03:06:06;;;;;;;3.33;2.17;;;5.60;99.90;5.40;99942.00;;;;4912767;28;87734;-70
2023/12/20 03:08:32;;;;;;;3.93;1.90;;;5.70;99.90;5.40;99941.00;;;;4908746;28;108262;-69
2023/12/20 03:10:59;;;;;;;3.83;2.33;;;6.00;99.90;5.40;99936.00;;;;4908530;28;117290;-71
2023/12/20 03:13:25;;;;;;;2.43;2.07;;;6.30;99.90;5.40;99930.00;;;;4908397;28;103479;-70
2023/12/20 03:15:51;;;;;;;4.07;1.87;;;5.50;99.90;5.40;99935.00;;;;4908040;28;109344;-70
2023/12/20 03:18:17;;;;;;;3.07;2.47;;;5.50;99.90;5.40;99927.00;;;;4924649;28;108005;-71
2023/12/20 03:20:43;;;;;;;1.87;1.73;;;5.50;99.90;5.40;99929.00;;;;4909556;28;87971;-70
2023/12/20 03:23:09;;;;;;;3.87;2.43;;;5.70;99.90;5.40;99918.00;;;;4909028;28;103747;-71
2023/12/20 03:25:35;;;;;;;2.33;1.70;;;6.00;99.90;5.40;99932.00;;;;4910862;28;110626;-70
2023/12/20 03:28:00;;;;;;;2.47;1.83;;;5.70;99.90;5.30;99938.00;;;;4913720;28;92238;-69
2023/12/20 03:30:26;;;;;;;3.60;1.97;;;5.60;99.90;5.30;99924.00;;;;4922708;28;117367;-72
2023/12/20 03:32:52;;;;;;;2.23;1.87;;;5.80;99.90;5.30;99923.00;;;;4909420;28;116968;-69
2023/12/20 03:35:17;;;;;;;3.73;2.00;;;5.50;99.90;5.30;99936.00;;;;4907348;28;110430;-69
2023/12/20 03:37:43;;;;;;;2.43;2.03;;;5.60;99.90;5.30;99924.00;;;;4908862;28;88058;-68
2023/12/20 03:40:09;;;;;;;4.07;1.63;;;5.50;99.90;5.30;99911.00;;;;4909071;28;109639;-68
2023/12/20 03:42:35;;;;;;;3.83;2.07;;;5.60;99.90;5.30;99919.00;;;;4912391;28;104946;-68
2023/12/20 03:45:01;;;;;;;1.93;1.73;;;5.50;99.90;5.30;99916.00;;;;4915772;28;98476;-70
2023/12/20 03:47:26;;;;;;;3.13;2.23;;;5.50;99.90;5.30;99915.00;;;;4908366;28;88995;-69
2023/12/20 03:49:53;;;;;;;3.63;2.13;;;5.50;99.90;5.30;99917.00;;;;4907400;28;98816;-71
2023/12/20 03:52:18;;;;;;;2.57;1.77;;;5.50;99.90;5.30;99917.00;;;;4916213;28;116942;-70
2023/12/20 03:54:44;;;;;;;2.83;1.80;;;5.50;99.90;5.30;99916.00;;;;4908735;28;101625;-70
2023/12/20 03:57:10;;;;;;;2.77;1.83;;;5.50;99.90;5.30;99911.00;;;;4909588;28;108718;-70
2023/12/20 03:59:37;;;;;;;3.27;2.40;;;5.50;99.90;5.30;99909.00;;;;4909789;28;106959;-71
2023/12/20 04:02:03;;;;;;;2.60;2.00;;;5.60;99.90;5.30;99920.00;;;;4926658;28;88837;-71
2023/12/20 04:04:29;;;;;;;1.47;1.30;;;5.60;99.90;5.30;99913.00;;;;4912261;28;87086;-70
2023/12/20 04:06:55;;;;;;;2.97;1.80;;;5.50;99.90;5.40;99922.00;;;;4909901;28;100229;-70
2023/12/20 04:09:21;;;;;;;3.90;1.80;;;5.60;99.90;5.40;99921.00;;;;4909969;28;118044;-69
2023/12/20 04:11:46;;;;;;;2.13;1.77;;;5.50;99.90;5.40;99923.00;;;;4908747;28;97445;-70
2023/12/20 04:14:12;;;;;;;2.00;1.53;;;6.20;99.90;5.40;99920.00;;;;4917057;28;109360;-69
2023/12/20 04:16:39;;;;;;;2.00;1.13;;;5.60;99.90;5.30;99922.00;;;;4914495;28;87977;-69
2023/12/20 04:19:04;;;;;;;3.13;1.83;;;5.60;99.90;5.40;99922.00;;;;4908323;28;88484;-70
2023/12/20 04:21:30;;;;;;;2.57;1.70;;;5.60;99.90;5.40;99922.00;;;;4913143;28;87817;-71
2023/12/20 04:23:56;;;;;;;2.33;1.83;;;5.90;99.90;5.40;99927.00;;;;4924003;28;110357;-73
2023/12/20 04:26:34;;;;;;;1.40;1.30;;;5.60;99.90;5.40;99916.00;;;;4911908;28;87951;-71
2023/12/20 04:29:00;;;;;;;1.90;1.37;;;5.80;99.90;5.40;99905.00;;;;4916058;28;117244;-72
2023/12/20 04:31:25;;;;;;;2.67;1.37;;;6.00;99.90;5.30;99905.00;;;;4906733;28;116750;-70
2023/12/20 04:33:51;;;;;;;2.37;1.97;;;6.20;99.90;5.30;99901.00;;;;4912548;28;110831;-70
2023/12/20 04:36:16;;;;;;;2.20;2.00;;;6.20;99.90;5.40;99921.00;;;;4911384;28;106623;-68
2023/12/20 04:38:42;;;;;;;2.17;1.63;;;5.50;99.90;5.40;99905.00;;;;4912214;28;118683;-71
2023/12/20 04:41:08;;;;;;;4.87;2.53;;;5.50;99.90;5.40;99924.00;;;;4903713;28;117403;-70
2023/12/20 04:43:33;;;;;;;3.53;1.77;;;6.00;99.90;5.40;99923.00;;;;4911316;28;110956;-72
2023/12/20 04:45:59;;;;;;;4.97;2.47;;;6.10;99.90;5.30;99923.00;;;;4918040;28;108862;-70
2023/12/20 04:48:25;;;;;;;1.40;1.30;;;5.60;99.90;5.40;99926.00;;;;4910195;28;93853;-70
2023/12/20 04:50:50;;;;;;;2.73;1.63;;;5.60;99.90;5.40;99904.00;;;;4907181;28;117326;-72
2023/12/20 04:53:16;;;;;;;3.67;1.93;;;5.50;99.90;5.40;99920.00;;;;4900248;28;109322;-68
2023/12/20 04:55:41;;;;;;;1.43;1.33;;;6.20;99.90;5.40;99920.00;;;;4910224;28;109373;-70
2023/12/20 04:58:07;;;;;;;4.27;2.30;;;5.60;99.90;5.40;99926.00;;;;4910171;28;117874;-70
2023/12/20 05:00:33;;;;;;;2.67;2.13;;;5.60;99.90;5.40;99925.00;;;;4910853;28;88748;-69
2023/12/20 05:02:59;;;;;;;2.33;1.60;;;5.50;99.90;5.40;99925.00;;;;4907950;28;110812;-69
2023/12/20 05:05:24;;;;;;;1.53;1.43;;;5.50;99.90;5.40;99914.00;;;;4913475;28;107715;-70
2023/12/20 05:07:53;;;;;;;1.63;1.40;;;5.60;99.90;5.40;99932.00;;;;4895482;28;95452;-70
2023/12/20 05:10:18;;;;;;;2.90;1.47;;;5.50;99.90;5.40;99941.00;;;;4914020;28;87767;-70
2023/12/20 05:12:44;;;;;;;1.97;1.77;;;5.60;99.90;5.40;99942.00;;;;4910096;28;109601;-69
2023/12/20 05:15:09;;;;;;;1.50;1.40;;;5.50;99.90;5.40;99935.00;;;;4909667;28;106950;-71
2023/12/20 05:17:35;;;;;;;2.17;1.23;;;6.20;99.90;5.50;99935.00;;;;4910924;28;114628;-69
2023/12/20 05:20:01;;;;;;;1.33;1.13;;;6.20;99.90;5.50;99948.00;;;;4906433;28;116556;-69
2023/12/20 05:22:27;;;;;;;1.47;1.17;;;5.60;99.90;5.40;99933.00;;;;4910703;28;87558;-70
2023/12/20 05:24:53;;;;;;;1.03;0.80;;;4.60;99.90;5.50;99945.00;;;;4911215;28;89463;-70
2023/12/20 05:27:18;;;;;;;2.17;1.23;;;5.50;99.90;5.40;99950.00;;;;4920253;28;88870;-71
2023/12/20 05:29:44;;;;;;;1.93;1.23;;;5.60;99.90;5.40;99941.00;;;;4910957;28;117995;-70
2023/12/20 05:32:10;;;;;;;2.00;0.90;;;5.60;99.90;5.50;99920.00;;;;4907928;28;110194;-69
2023/12/20 05:34:36;;;;;;;1.90;1.23;;;5.60;99.90;5.50;99947.00;;;;4908355;28;107665;-68
2023/12/20 05:37:02;;;;;;;2.10;1.27;;;5.60;99.90;5.40;99949.00;;;;4911859;28;89636;-70
2023/12/20 05:39:28;;;;;;;1.33;1.23;;;5.60;99.90;5.50;99952.00;;;;4911647;28;114885;-69
2023/12/20 05:41:53;;;;;;;1.33;1.10;;;5.60;99.90;5.40;99946.00;;;;4909482;28;87102;-69
2023/12/20 05:44:19;;;;;;;0.67;0.53;;;5.60;99.90;5.40;99957.00;;;;4906448;28;108842;-70
2023/12/20 05:46:45;;;;;;;0.90;0.90;;;6.20;99.90;5.40;99949.00;;;;4910555;28;106317;-69
2023/12/20 05:49:10;;;;;;;1.03;0.87;;;6.00;99.90;5.40;99961.00;;;;4910512;28;111220;-69
2023/12/20 05:51:36;;;;;;;2.10;1.00;;;5.60;99.90;5.40;99960.00;;;;4915755;28;87607;-69
2023/12/20 05:54:02;;;;;;;0.90;0.90;;;5.50;99.90;5.30;99958.00;;;;4912420;28;95421;-70
2023/12/20 05:56:27;;;;;;;0.93;0.60;;;5.50;99.90;5.30;99957.00;;;;4910129;28;88028;-69
2023/12/20 05:58:53;;;;;;;0.53;0.50;;;5.40;99.90;5.20;99957.00;;;;4907618;28;117754;-69
2023/12/20 06:01:19;;;;;;;0.87;0.67;;;5.70;99.90;5.20;99961.00;;;;4892908;28;113866;-69
2023/12/20 06:03:45;;;;;;;5.40;0.90;;;5.30;99.90;5.20;99968.00;;;;4902905;28;110763;-68
2023/12/20 06:06:12;;;;;;;1.10;0.93;;;5.40;99.90;5.20;99967.00;;;;4907337;28;89200;-69
2023/12/20 06:08:38;;;;;;;0.87;0.83;;;6.10;99.90;5.10;99975.00;;;;4907372;28;87691;-67
2023/12/20 06:11:05;;;;;;;1.10;1.00;;;6.00;99.90;5.10;99956.00;;;;4907910;28;110589;-68
2023/12/20 06:13:31;;;;;;;1.53;1.37;;;5.90;99.90;5.20;99957.00;;;;4900049;28;88702;-69
2023/12/20 06:15:57;;;;;;;1.77;1.50;;;5.50;99.90;5.20;99971.00;;;;4919723;28;87854;-68
2023/12/20 06:18:24;;;;;;;2.63;1.67;;;5.40;99.90;5.20;99965.00;;;;4901461;28;118438;-70
2023/12/20 06:20:49;;;;;;;1.40;1.30;;;5.30;99.90;5.20;99976.00;;;;4913082;28;88128;-69
2023/12/20 06:23:15;;;;;;;2.13;0.90;;;5.40;99.90;5.30;99977.00;;;;4909841;28;101462;-68
2023/12/20 06:25:41;;;;;;;1.33;1.23;;;5.70;99.90;5.30;99976.00;;;;4903360;28;118069;-68
2023/12/20 06:28:07;;;;;;;2.73;1.43;;;5.40;99.90;5.30;99981.00;;;;4902081;28;110656;-69
2023/12/20 06:30:34;;;;;;;1.67;1.43;;;5.70;99.90;5.30;99973.00;;;;4902055;28;87242;-68
2023/12/20 06:32:59;;;;;;;2.37;1.73;;;5.40;99.90;5.30;99988.00;;;;4907697;28;88135;-69
2023/12/20 06:35:25;;;;;;;2.30;1.73;;;5.50;99.90;5.30;99977.00;;;;4904711;28;114041;-69
2023/12/20 06:37:51;;;;;;;2.10;1.30;;;5.40;99.90;5.30;99978.00;;;;4895693;28;89981;-68
2023/12/20 06:40:19;;;;;;;1.87;1.43;;;5.50;99.90;5.30;99987.00;;;;4901502;28;109176;-69
2023/12/20 06:42:46;;;;;;;1.60;1.47;;;5.50;99.90;5.30;99989.00;;;;4905360;28;109885;-69
2023/12/20 06:45:12;;;;;;;3.00;2.17;;;6.00;99.90;5.30;99979.00;;;;4912373;28;87952;-68
2023/12/20 06:47:38;;;;;;;3.60;1.83;;;5.50;99.90;5.30;99981.00;;;;4903153;28;89022;-68
2023/12/20 06:50:05;;;;;;;3.73;2.43;;;5.50;99.90;5.30;99988.00;;;;4907042;28;101918;-69
2023/12/20 06:52:30;;;;;;;3.23;2.53;;;5.50;99.90;5.30;99987.00;;;;4908597;28;87998;-69
2023/12/20 06:55:02;;;;;;;5.33;2.87;;;5.50;99.90;5.20;99987.00;;;;4911298;28;117164;-68
2023/12/20 06:57:27;;;;;;;2.20;2.07;;;5.40;99.90;5.20;99996.00;;;;4907202;28;88097;-69
2023/12/20 06:59:53;;;;;;;4.23;2.10;;;5.40;99.90;5.10;99995.00;;;;4906055;28;104890;-68
2023/12/20 07:02:19;;;;;;;3.10;2.00;;;5.40;99.90;5.10;99995.00;;;;4894291;28;105650;-68
2023/12/20 07:04:45;;;;;;;2.93;1.93;;;5.30;99.90;5.10;99989.00;;;;4907355;28;88201;-67
2023/12/20 07:07:10;;;;;;;2.57;1.90;;;5.20;99.90;5.00;99992.00;;;;4907016;28;117288;-69
2023/12/20 07:09:36;;;;;;;3.67;2.53;;;5.20;99.90;5.00;100007.00;;;;4908083;28;109477;-68
2023/12/20 07:12:03;;;;;;;3.10;1.83;;;5.20;99.90;4.90;99992.00;;;;4905777;28;87742;-69
2023/12/20 07:14:29;;;;;;;2.33;2.13;;;5.10;99.90;4.80;100003.00;;;;4907348;28;106418;-68
2023/12/20 07:16:54;;;;;;;3.23;2.57;;;5.00;99.90;4.80;99998.00;;;;4911467;28;88388;-69
2023/12/20 07:19:20;;;;;;;4.73;2.63;;;6.40;99.90;4.80;99998.00;;;;4890441;28;86707;-70
2023/12/20 07:21:46;;;;;;;2.83;2.00;;;6.00;99.90;4.80;100003.00;;;;4919439;28;107121;-67
2023/12/20 07:24:11;;;;;;;5.33;2.40;;;5.00;99.90;4.70;99991.00;;;;4907932;28;88261;-67
2023/12/20 07:26:38;;;;;;;2.87;2.47;;;4.90;99.90;4.70;100005.00;;;;4905115;28;116673;-69
2023/12/20 07:29:04;;;;;;;2.93;2.03;;;4.90;99.90;4.60;99996.00;;;;4901984;28;88218;-67
2023/12/20 07:31:30;;;;;;;2.73;2.53;;;4.90;99.90;4.60;100000.00;;;;4906706;28;109333;-67
2023/12/20 07:33:56;;;;;;;7.30;3.27;;;4.70;99.90;4.50;99994.00;;;;4907492;28;88033;-68
2023/12/20 07:36:22;;;;;;;3.90;2.93;;;4.70;99.90;4.40;99999.00;;;;4905346;28;117024;-68
2023/12/20 07:38:48;;;;;;;3.00;2.60;;;4.10;99.90;4.40;99986.00;;;;4903623;28;87413;-68
2023/12/20 07:41:15;;;;;;;3.60;2.50;;;4.60;99.90;4.40;100004.00;;;;4907483;28;91984;-68
2023/12/20 07:43:41;;;;;;;3.03;2.40;;;4.60;99.90;4.40;99993.00;;;;4904939;28;86879;-66
2023/12/20 07:46:08;;;;;;;4.93;2.13;;;4.60;99.90;4.40;99990.00;;;;4908327;28;87812;-68
2023/12/20 07:48:35;;;;;;;3.87;2.73;;;5.20;99.90;4.40;99991.00;;;;4912925;28;87514;-67
2023/12/20 07:51:02;;;;;;;3.30;2.20;;;4.50;99.90;4.40;99983.00;;;;4905750;28;88889;-67
2023/12/20 07:53:28;;;;;;;6.40;3.47;;;4.10;99.90;4.60;99982.00;;;;4911420;28;87900;-68
2023/12/20 07:55:53;;;;;;;4.07;3.27;;;5.10;99.90;4.70;99988.00;;;;4909051;28;87862;-68
2023/12/20 07:58:19;;;;;;;3.93;2.77;;;4.80;99.90;4.70;99991.00;;;;4905343;28;111088;-68
2023/12/20 08:00:45;;;;;;;3.57;2.80;;;4.90;99.90;4.70;99993.00;;;;4910101;28;87702;-69
2023/12/20 08:03:11;;;;;;;2.60;2.13;;;4.90;99.90;4.80;99983.00;;;;4905677;28;116190;-68
2023/12/20 08:05:40;;;;;;;4.43;2.53;;;5.00;99.90;5.00;99978.00;;;;4909218;28;117444;-67
2023/12/20 08:08:06;;;;;;;2.60;2.33;;;5.10;99.90;5.20;99982.00;;;;4918466;28;86820;-68
2023/12/20 08:10:32;;;;;;;5.03;2.30;;;5.30;99.90;5.40;99993.00;;;;4894511;28;94361;-68
2023/12/20 08:12:58;;;;;;;2.63;2.07;;;5.50;99.90;5.70;99984.00;;;;4907712;28;87994;-67
2023/12/20 08:15:23;;;;;;;4.73;2.97;;;5.70;99.90;5.80;99986.00;;;;4908373;28;107369;-67
2023/12/20 08:17:50;;;;;;;6.93;2.53;;;5.90;99.90;6.00;99999.00;;;;4908775;28;110804;-68
2023/12/20 08:20:17;;;;;;;7.33;2.03;;;6.20;99.90;6.20;99990.00;;;;4909877;28;87334;-68
2023/12/20 08:22:42;;;;;;;6.07;3.53;;;6.30;99.90;6.40;100005.00;;;;4909374;28;103533;-67
2023/12/20 08:25:08;;;;;;;4.30;2.07;;;6.50;99.90;6.50;100006.00;;;;4910352;28;88169;-66
2023/12/20 08:27:39;;;;;;;4.10;1.87;;;6.60;99.90;6.40;99999.00;;;;4911469;28;91945;-68
2023/12/20 08:30:06;;;;;;;3.53;2.27;;;7.90;99.90;6.30;99998.00;;;;4895033;28;88052;-69
2023/12/20 08:32:32;;;;;;;3.00;2.00;;;6.60;99.90;6.30;99992.00;;;;4908163;28;107655;-68
2023/12/20 08:34:58;;;;;;;2.77;2.40;;;6.50;99.90;6.30;99991.00;;;;4922522;28;88019;-69
2023/12/20 08:37:23;;;;;;;5.80;2.17;;;6.90;99.90;6.30;99989.00;;;;4906392;28;88288;-68
2023/12/20 08:39:49;;;;;;;3.13;2.47;;;6.50;99.90;6.40;99983.00;;;;4907427;28;108094;-68
2023/12/20 08:42:15;;;;;;;3.10;2.10;;;6.60;99.90;6.30;99974.00;;;;4910014;28;116934;-69
2023/12/20 08:44:40;;;;;;;2.17;2.00;;;6.80;99.90;6.30;99989.00;;;;4912832;28;116524;-70
2023/12/20 08:47:06;;;;;;;2.80;2.07;;;6.50;99.90;6.20;99978.00;;;;4909304;28;98529;-69
2023/12/20 08:49:32;;;;;;;3.67;2.00;;;6.50;99.90;6.20;99981.00;;;;4907567;28;107492;-70
2023/12/20 08:51:57;;;;;;;3.97;1.83;;;6.40;99.90;6.10;99983.00;;;;4907970;28;88590;-70
2023/12/20 08:54:24;;;;;;;2.97;1.80;;;7.00;99.90;6.10;99984.00;;;;4905583;28;117921;-69
2023/12/20 08:56:50;;;;;;;1.80;1.70;;;5.20;99.90;6.00;99978.00;;;;4910211;28;87337;-69
2023/12/20 08:59:15;;;;;;;1.73;1.63;;;6.20;99.90;6.00;99979.00;;;;4912906;28;108609;-68
2023/12/20 09:01:41;;;;;;;2.43;1.87;;;7.00;99.90;6.00;99970.00;;;;4907559;28;89380;-69
2023/12/20 09:04:07;;;;;;;4.00;1.57;;;6.20;99.90;6.00;99969.00;;;;4905337;28;118689;-70
2023/12/20 09:06:32;;;;;;;3.47;1.97;;;6.20;99.90;6.00;99974.00;;;;4907152;28;87902;-69
2023/12/20 09:08:58;;;;;;;1.70;1.60;;;6.80;99.90;6.00;99977.00;;;;4908500;28;108668;-69
2023/12/20 09:11:24;;;;;;;1.93;1.67;;;6.20;99.90;6.10;99967.00;;;;4906785;28;118206;-68
2023/12/20 09:13:49;;;;;;;3.00;1.47;;;6.20;99.90;6.00;99972.00;;;;4902663;28;116712;-69
2023/12/20 09:16:15;;;;;;;2.23;1.40;;;6.30;99.90;6.10;99980.00;;;;4910414;28;110350;-70
2023/12/20 09:18:42;;;;;;;2.20;0.97;;;6.70;99.90;6.10;99976.00;;;;4908193;28;87730;-68
2023/12/20 09:21:10;;;;;;;1.67;1.17;;;6.30;99.90;6.10;99977.00;;;;4914283;28;87457;-68
2023/12/20 09:23:36;;;;;;;1.50;0.90;;;6.20;99.90;6.10;99976.00;;;;4909896;28;87709;-67
2023/12/20 09:26:03;;;;;;;2.40;1.30;;;6.40;99.90;6.10;99980.00;;;;4908963;28;87773;-68
2023/12/20 09:28:28;;;;;;;1.23;0.87;;;6.30;99.90;6.10;99978.00;;;;4906838;28;95989;-67
2023/12/20 09:30:54;;;;;;;1.27;1.07;;;7.10;99.90;6.10;99977.00;;;;4911061;28;88355;-68
2023/12/20 09:33:20;;;;;;;0.97;0.87;;;6.30;99.90;6.10;99987.00;;;;4906781;28;88396;-67
2023/12/20 09:35:46;;;;;;;0.80;0.80;;;6.30;99.90;6.20;99973.00;;;;4908653;28;110181;-66
2023/12/20 09:38:12;;;;;;;1.60;1.03;;;6.30;99.90;6.20;99970.00;;;;4905225;28;107859;-67
2023/12/20 09:40:41;;;;;;;1.30;0.97;;;6.40;99.90;6.20;99968.00;;;;4907792;28;88225;-68
2023/12/20 09:43:15;;;;;;;1.27;0.73;;;7.00;99.90;6.20;99966.00;;;;4903139;28;101937;-67
2023/12/20 09:45:45;;;;;;;3.43;0.70;;;6.40;99.90;6.30;99955.00;;;;4909750;28;87295;-67
2023/12/20 09:48:11;;;;;;;1.10;0.57;;;6.30;99.90;6.30;99964.00;;;;4901528;28;100240;-68
2023/12/20 09:50:37;;;;;;;1.17;0.87;;;6.40;99.90;6.30;99961.00;;;;4893962;28;89821;-69
2023/12/20 09:53:08;;;;;;;1.60;1.00;;;6.40;99.90;6.20;99963.00;;;;4902740;28;117552;-67
2023/12/20 09:55:36;;;;;;;1.13;0.77;;;6.40;99.90;6.30;99956.00;;;;4909159;28;87507;-68
2023/12/20 09:58:02;;;;;;;1.43;0.77;;;6.40;99.90;6.30;99956.00;;;;4904663;28;87779;-68
2023/12/20 10:00:28;;;;;;;0.50;0.50;;;6.90;99.90;6.30;99950.00;;;;4907193;28;88016;-67
2023/12/20 10:02:58;;;;;;;1.20;0.77;;;6.50;99.90;6.30;99955.00;;;;4903720;28;117527;-68
2023/12/20 10:05:34;;;;;;;3.47;0.80;;;6.50;99.90;6.30;99952.00;;;;4903470;28;87972;-71
2023/12/20 10:08:00;;;;;;;1.90;0.60;;;6.90;99.90;6.30;99957.00;;;;4905004;28;88272;-69
2023/12/20 10:10:27;;;;;;;2.53;1.50;;;6.50;99.90;6.30;99935.00;;;;4907823;28;87207;-70
2023/12/20 10:13:09;;;;;;;1.27;0.97;;;6.50;99.90;6.40;99939.00;;;;4908407;28;105740;-69
2023/12/20 10:15:36;;;;;;;0.70;0.70;;;6.50;99.90;6.40;99939.00;;;;4910138;28;87938;-68
2023/12/20 10:18:04;;;;;;;0.40;0.40;;;6.50;99.90;6.40;99949.00;;;;4904907;28;89307;-69
2023/12/20 10:20:30;;;;;;;1.67;0.80;;;6.50;99.90;6.40;99930.00;;;;4909737;28;87570;-69
2023/12/20 10:23:00;;;;;;;1.13;0.60;;;6.60;99.90;6.50;99926.00;;;;4907662;28;87975;-69
2023/12/20 10:25:26;;;;;;;0.37;0.33;;;6.60;99.90;6.50;99932.00;;;;4906755;28;91768;-68
2023/12/20 10:28:13;;;;;;;3.47;0.93;;;6.50;99.90;6.50;99930.00;;;;4908465;28;87746;-67
2023/12/20 10:30:41;;;;;;;1.27;0.60;;;6.70;99.90;6.60;99940.00;;;;4909132;28;87578;-68
2023/12/20 10:33:10;;;;;;;2.60;0.83;;;6.70;99.90;6.70;99934.00;;;;4909475;28;87950;-69
2023/12/20 10:35:37;;;;;;;0.70;0.70;;;6.80;99.90;6.70;99918.00;;;;4909390;28;86632;-68
2023/12/20 10:38:06;;;;;;;0.87;0.63;;;6.80;99.90;7.10;99934.00;;;;4913242;28;88062;-69
2023/12/20 10:40:39;;;;;;;0.70;0.70;;;7.00;99.90;7.40;99914.00;;;;4909079;28;88051;-68
2023/12/20 10:43:05;;;;;;;0.97;0.60;;;7.40;99.90;7.60;99916.00;;;;4920458;28;88795;-70
2023/12/20 10:45:32;;;;;;;1.37;0.70;;;7.60;99.90;7.60;99910.00;;;;4908798;28;89701;-70
2023/12/20 10:47:59;;;;;;;4.10;1.13;;;7.70;99.90;7.60;99902.00;;;;4908836;28;88218;-69
2023/12/20 10:50:28;;;;;;;1.07;0.73;;;7.70;99.90;7.50;99902.00;;;;4911231;28;88041;-70
2023/12/20 10:52:55;;;;;;;0.67;0.50;;;7.60;99.90;7.40;99905.00;;;;4910316;28;88117;-70
2023/12/20 10:55:22;;;;;;;3.97;1.03;;;8.80;99.90;7.40;99894.00;;;;4907314;28;87487;-70
2023/12/20 10:57:51;;;;;;;2.90;0.57;;;7.50;99.90;7.40;99900.00;;;;4908245;28;87983;-70
2023/12/20 11:00:18;;;;;;;2.47;0.60;;;7.40;99.90;7.30;99905.00;;;;4922898;28;87475;-69